Time;durP1;ratioP1;P1;durP2;ratioP2;P2;SDS_P1;SDS_P2;PMS_P1;PMS_P2;Temp;Humidity;BMP_temperature;BMP_pressure;BME280_temperature;BME280_humidity;BME280_pressure;Samples;Min_cycle;Max_cycle;Signal;HPM_P1;HPM_P2
2022/11/22 00:00:43;;;;;;;5.38;2.45;;;5.80;99.90;;;5.81;100.00;98131.75;4947186;28;20244;-78
2022/11/22 00:03:11;;;;;;;10.77;3.45;;;5.80;99.90;;;5.83;100.00;98135.22;4949314;28;20285;-78
2022/11/22 00:05:38;;;;;;;9.30;2.97;;;5.90;99.90;;;5.84;100.00;98129.09;4947507;28;20230;-78
2022/11/22 00:08:06;;;;;;;9.27;3.20;;;5.90;99.90;;;5.84;100.00;98129.97;4949402;28;20218;-78
2022/11/22 00:10:33;;;;;;;5.75;2.00;;;5.90;99.90;;;5.87;100.00;98132.56;4935862;28;20354;-78
2022/11/22 00:13:01;;;;;;;6.55;2.38;;;5.90;99.90;;;5.86;100.00;98116.84;4950109;28;20234;-78
2022/11/22 00:15:28;;;;;;;8.50;2.90;;;5.90;99.90;;;5.87;100.00;98124.69;4947967;28;20237;-78
2022/11/22 00:17:56;;;;;;;8.40;2.92;;;5.90;99.90;;;5.87;100.00;98115.94;4948254;28;20265;-78
2022/11/22 00:20:23;;;;;;;8.18;2.90;;;5.90;99.90;;;5.86;100.00;98107.22;4948290;28;20229;-78
2022/11/22 00:22:50;;;;;;;11.32;3.85;;;5.90;99.90;;;5.86;100.00;98096.72;4946546;28;20233;-78
2022/11/22 00:25:18;;;;;;;11.15;3.90;;;5.90;99.90;;;5.88;100.00;98091.47;4947384;28;20253;-78
2022/11/22 00:27:45;;;;;;;4.05;1.98;;;5.90;99.90;;;5.89;100.00;98101.06;4948537;28;20229;-78
2022/11/22 00:30:12;;;;;;;7.63;2.80;;;5.90;99.90;;;5.91;100.00;98109.84;4950668;28;20551;-78
2022/11/22 00:32:40;;;;;;;8.27;2.80;;;5.90;99.90;;;5.91;100.00;98107.22;4950426;28;20281;-78
2022/11/22 00:35:08;;;;;;;9.55;3.25;;;5.90;99.90;;;5.92;100.00;98106.31;4949228;28;20242;-78
2022/11/22 00:37:36;;;;;;;8.15;2.95;;;6.00;99.90;;;5.92;100.00;98117.69;4951711;28;20222;-78
2022/11/22 00:40:05;;;;;;;7.25;2.63;;;6.00;99.90;;;5.95;100.00;98122.03;4952350;28;20260;-78
2022/11/22 00:42:32;;;;;;;7.82;2.83;;;6.00;99.90;;;5.95;100.00;98128.16;4949524;28;20352;-78
2022/11/22 00:44:59;;;;;;;6.18;2.25;;;6.00;99.90;;;5.96;100.00;98129.00;4951582;28;20245;-78
2022/11/22 00:47:26;;;;;;;8.15;3.03;;;6.00;99.90;;;5.96;100.00;98116.78;4932737;28;20238;-78
2022/11/22 00:49:53;;;;;;;7.43;2.75;;;6.00;99.90;;;5.96;100.00;98111.53;4950021;28;20230;-78
2022/11/22 00:52:20;;;;;;;6.57;2.33;;;6.00;99.90;;;5.97;100.00;98126.38;4951600;28;20237;-78
2022/11/22 00:54:47;;;;;;;10.23;3.47;;;6.00;99.90;;;6.00;100.00;98138.59;4949585;28;20222;-78
2022/11/22 00:57:21;;;;;;;8.50;3.10;;;6.00;99.90;;;5.99;100.00;98144.72;4949738;28;20292;-78
2022/11/22 00:59:48;;;;;;;7.03;2.58;;;6.00;99.90;;;6.01;100.00;98162.19;4953980;28;20229;-78
2022/11/22 01:02:15;;;;;;;5.60;2.10;;;6.00;99.90;;;6.01;100.00;98158.69;4950618;28;20284;-78
2022/11/22 01:04:43;;;;;;;11.35;4.00;;;6.00;99.90;;;6.03;100.00;98154.31;4944797;28;20256;-78
2022/11/22 01:07:10;;;;;;;6.78;2.45;;;6.10;99.90;;;6.03;100.00;98154.31;4948288;28;20240;-78
2022/11/22 01:09:37;;;;;;;7.13;2.63;;;6.10;99.90;;;6.02;100.00;98150.81;4950723;28;20226;-78
2022/11/22 01:12:05;;;;;;;5.45;2.15;;;6.10;99.90;;;6.02;100.00;98148.19;4946853;28;20248;-78
2022/11/22 01:14:32;;;;;;;7.22;2.63;;;6.10;99.90;;;6.04;100.00;98143.81;4947725;28;20297;-78
2022/11/22 01:17:00;;;;;;;7.45;2.70;;;6.10;99.90;;;6.04;100.00;98149.03;4950659;28;20669;-78
2022/11/22 01:19:27;;;;;;;5.75;2.20;;;6.10;99.90;;;6.05;100.00;98149.91;4948602;28;20308;-78
2022/11/22 01:21:55;;;;;;;5.72;2.17;;;6.10;99.90;;;6.05;100.00;98150.78;4949146;28;20248;-78
2022/11/22 01:24:22;;;;;;;8.15;3.03;;;6.10;99.90;;;6.03;100.00;98149.06;4934006;28;20233;-78
2022/11/22 01:26:49;;;;;;;1.88;1.40;;;6.10;99.90;;;6.02;100.00;98142.06;4949605;28;20281;-78
2022/11/22 01:29:16;;;;;;;6.10;2.40;;;6.10;99.90;;;6.04;100.00;98151.66;4950684;28;20316;-78
2022/11/22 01:31:44;;;;;;;7.45;2.75;;;6.10;99.90;;;6.09;100.00;98154.25;4932747;29;20272;-78
2022/11/22 01:34:12;;;;;;;6.85;2.63;;;6.10;99.90;;;6.08;100.00;98149.88;4947384;28;20249;-78
2022/11/22 01:36:39;;;;;;;6.68;2.45;;;6.10;99.90;;;6.13;100.00;98162.97;4950727;28;20244;-78
2022/11/22 01:39:06;;;;;;;5.75;2.22;;;6.20;99.90;;;6.12;100.00;98159.47;4952285;28;20241;-78
2022/11/22 01:41:34;;;;;;;7.20;2.60;;;6.20;99.90;;;6.14;100.00;98169.94;4951689;28;20261;-78
2022/11/22 01:44:24;;;;;;;6.85;2.45;;;6.20;99.90;;;6.14;100.00;98170.81;4949178;28;20300;-78
2022/11/22 01:47:10;;;;;;;7.13;2.72;;;6.20;99.90;;;6.29;100.00;98189.03;4943247;28;20246;-77
2022/11/22 01:50:04;;;;;;;8.68;3.10;;;6.30;99.90;;;6.27;100.00;98180.31;4949236;28;20253;-77
2022/11/22 01:52:33;;;;;;;7.07;2.67;;;6.30;99.90;;;6.27;100.00;98180.31;4934932;28;20253;-78
2022/11/22 01:55:08;;;;;;;6.53;2.30;;;6.30;99.90;;;6.30;100.00;98190.78;4948705;28;20233;-78
2022/11/22 01:57:38;;;;;;;9.05;3.45;;;6.30;99.90;;;6.33;100.00;98190.75;4932355;28;20229;-78
2022/11/22 02:00:15;;;;;;;8.02;3.03;;;6.40;99.90;;;6.36;100.00;98200.34;4938986;29;20292;-78
2022/11/22 02:02:52;;;;;;;8.48;3.00;;;6.40;99.90;;;6.47;100.00;98213.38;4945883;28;20233;-77
2022/11/22 02:05:25;;;;;;;7.47;2.67;;;6.50;99.90;;;6.51;100.00;98215.09;4931854;29;20296;-78
2022/11/22 02:08:08;;;;;;;8.63;3.13;;;6.50;99.90;;;6.68;100.00;98229.78;4927696;28;20232;-78
2022/11/22 02:11:01;;;;;;;6.90;2.63;;;6.70;99.90;;;6.71;100.00;98226.25;4950228;28;20222;-78
2022/11/22 02:13:31;;;;;;;8.25;3.05;;;6.80;99.90;;;6.67;100.00;98229.81;4946150;28;20309;-78
2022/11/22 02:15:59;;;;;;;1.67;1.38;;;6.70;99.90;;;6.62;100.00;98224.59;4932248;29;20308;-78
2022/11/22 02:18:26;;;;;;;8.40;3.28;;;6.70;99.90;;;6.74;100.00;98244.63;4911370;28;20730;-78
2022/11/22 02:20:54;;;;;;;5.30;2.00;;;6.80;99.90;;;6.99;100.00;98264.47;4919870;29;20399;-78
2022/11/22 02:23:33;;;;;;;5.57;2.20;;;7.00;99.90;;;6.96;100.00;98269.75;4931579;29;20899;-77
2022/11/22 02:26:02;;;;;;;7.43;2.88;;;7.00;99.90;;;7.00;100.00;98276.72;4932028;28;20264;-77
2022/11/22 02:28:34;;;;;;;6.40;2.47;;;7.10;99.90;;;6.99;100.00;98292.50;4928872;29;20664;-77
2022/11/22 02:31:02;;;;;;;7.15;2.75;;;7.00;99.90;;;6.97;100.00;98297.78;4947504;28;20268;-77
2022/11/22 02:33:29;;;;;;;7.63;2.85;;;7.00;99.90;;;6.87;100.00;98290.00;4937387;29;20230;-77
2022/11/22 02:35:56;;;;;;;8.48;3.10;;;6.90;99.90;;;6.91;100.00;98297.84;4944621;28;20267;-78
2022/11/22 02:38:31;;;;;;;7.82;3.00;;;6.90;99.90;;;7.05;100.00;98311.72;4917147;29;20313;-77
2022/11/22 02:43:46;;;;;;;10.32;4.22;;;6.90;99.90;;;6.79;100.00;98313.72;5457492;23;20266;-79
2022/11/22 02:46:19;;;;;;;5.90;2.58;;;6.80;99.90;;;6.80;100.00;98309.34;5008840;28;20265;-80
2022/11/22 02:48:46;;;;;;;7.50;2.88;;;6.80;99.90;;;6.82;100.00;98320.72;5025417;28;20227;-79
2022/11/22 02:51:18;;;;;;;6.07;2.53;;;6.90;99.90;;;6.82;100.00;98333.84;5030069;28;20255;-80
2022/11/22 02:53:48;;;;;;;5.05;2.20;;;6.80;99.90;;;6.86;100.00;98344.31;5030329;28;20230;-80
2022/11/22 02:56:16;;;;;;;7.30;2.83;;;6.90;99.90;;;6.92;100.00;98348.63;5032640;28;20299;-80
2022/11/22 02:58:44;;;;;;;6.90;2.83;;;6.90;99.90;;;6.86;100.00;98353.94;5022494;28;20269;-79
2022/11/22 03:01:12;;;;;;;5.97;2.40;;;6.90;99.90;;;6.79;100.00;98354.88;5034945;28;20646;-79
2022/11/22 03:03:39;;;;;;;6.57;2.50;;;6.80;99.90;;;6.82;100.00;98360.97;5003772;28;20235;-79
2022/11/22 03:06:06;;;;;;;7.20;2.83;;;6.80;99.90;;;6.72;100.00;98356.69;5024611;28;20288;-80
2022/11/22 03:08:33;;;;;;;6.45;2.53;;;6.80;99.90;;;6.67;100.00;98358.50;5005894;28;20230;-79
2022/11/22 03:11:00;;;;;;;6.20;2.45;;;6.70;99.90;;;6.65;100.00;98373.41;5038146;28;20247;-79
2022/11/22 03:13:27;;;;;;;5.18;2.20;;;6.70;99.90;;;6.60;100.00;98372.56;5033052;28;20234;-80
2022/11/22 03:15:54;;;;;;;6.88;3.58;;;6.60;99.90;;;6.67;100.00;98374.25;5014443;28;20235;-80
2022/11/22 03:18:21;;;;;;;5.65;2.30;;;6.70;99.90;;;6.66;100.00;98372.50;5023909;28;20234;-80
2022/11/22 03:20:48;;;;;;;6.82;2.50;;;6.70;99.90;;;6.63;100.00;98375.16;5030956;28;20295;-79
2022/11/22 03:23:16;;;;;;;6.38;2.45;;;6.70;99.90;;;6.64;100.00;98374.28;5022523;28;20258;-80
2022/11/22 03:25:43;;;;;;;5.63;2.30;;;6.70;99.90;;;6.73;100.00;98384.72;5022411;28;20234;-80
2022/11/22 03:28:10;;;;;;;5.72;2.40;;;6.70;99.90;;;6.71;100.00;98382.09;5035705;28;20266;-81
2022/11/22 03:30:41;;;;;;;7.20;2.88;;;6.70;99.90;;;6.68;100.00;98382.13;5035135;28;20266;-82
2022/11/22 03:33:08;;;;;;;7.13;2.90;;;6.70;99.90;;;6.65;100.00;98383.91;5022904;28;20287;-82
2022/11/22 03:35:36;;;;;;;9.82;3.80;;;6.70;99.90;;;6.60;100.00;98380.44;5015169;28;20807;-82
2022/11/22 03:38:05;;;;;;;12.00;4.78;;;6.60;99.90;;;6.57;100.00;98385.72;5019457;28;20227;-82
2022/11/22 03:40:36;;;;;;;7.65;3.03;;;6.60;99.90;;;6.67;100.00;98405.78;5030538;28;20703;-81
2022/11/22 03:43:03;;;;;;;7.68;3.00;;;6.70;99.90;;;7.06;100.00;98409.81;5000939;28;20325;-82
2022/11/22 03:45:30;;;;;;;6.68;2.75;;;7.00;99.90;;;7.11;100.00;98413.25;5020848;28;20657;-82
2022/11/22 03:47:57;;;;;;;12.52;4.82;;;7.10;99.90;;;6.98;100.00;98409.00;5007599;28;20255;-81
2022/11/22 03:50:24;;;;;;;6.82;2.80;;;7.00;99.90;;;6.88;100.00;98404.72;4992669;28;20227;-83
2022/11/22 03:52:51;;;;;;;5.78;2.47;;;6.90;99.90;;;6.77;100.00;98404.81;5013203;28;20738;-82
2022/11/22 03:55:18;;;;;;;9.40;3.75;;;6.80;99.90;;;6.72;100.00;98414.47;5021218;28;20301;-83
2022/11/22 03:57:49;;;;;;;6.78;2.80;;;6.70;99.90;;;6.62;100.00;98416.31;5024636;28;20277;-83
2022/11/22 04:00:16;;;;;;;8.38;3.38;;;6.60;99.90;;;6.67;100.00;98421.53;5018843;28;20227;-82
2022/11/22 04:02:43;;;;;;;8.90;3.50;;;6.70;99.90;;;6.73;100.00;98429.34;5019245;28;20326;-82
2022/11/22 04:05:10;;;;;;;6.65;2.70;;;6.70;99.90;;;6.71;100.00;98420.63;5019398;28;20238;-82
2022/11/22 04:07:37;;;;;;;7.15;2.67;;;6.70;99.90;;;6.70;100.00;98413.63;5024006;28;20318;-82
2022/11/22 04:10:05;;;;;;;7.05;2.78;;;6.70;99.90;;;6.66;100.00;98423.28;5015388;28;20240;-82
2022/11/22 04:12:32;;;;;;;8.40;3.38;;;6.70;99.90;;;6.63;100.00;98423.31;5001566;28;20329;-82
2022/11/22 04:15:06;;;;;;;5.90;2.40;;;6.60;99.90;;;6.62;100.00;98429.44;5016040;28;20245;-82
2022/11/22 04:17:44;;;;;;;5.43;2.30;;;6.60;99.90;;;6.58;100.00;98427.72;5027478;28;20230;-82
2022/11/22 04:23:08;;;;;;;5.70;2.42;;;6.60;99.90;;;6.72;100.00;98452.13;5028297;28;20234;-82
2022/11/22 04:25:38;;;;;;;5.20;2.33;;;6.70;99.90;;;6.70;100.00;98438.13;5019862;28;20319;-82
2022/11/22 04:28:08;;;;;;;5.35;2.38;;;6.70;99.90;;;6.65;100.00;98439.91;5009096;28;20231;-82
2022/11/22 04:33:21;;;;;;;5.07;2.30;;;6.60;99.90;;;6.60;100.00;98446.09;5020984;28;20327;-82
2022/11/22 04:35:49;;;;;;;5.57;2.38;;;6.60;99.90;;;6.73;100.00;98443.38;5021602;28;20322;-82
2022/11/22 04:38:17;;;;;;;5.60;2.50;;;6.70;99.90;;;6.78;100.00;98434.56;5011145;28;20251;-82
2022/11/22 04:40:45;;;;;;;5.65;2.38;;;6.80;99.90;;;6.78;100.00;98432.81;5011191;28;20311;-82
2022/11/22 04:46:09;;;;;;;4.20;1.90;;;6.70;99.90;;;6.62;100.00;98413.69;5044971;28;20226;-81
2022/11/22 04:48:37;;;;;;;5.55;2.47;;;6.60;99.90;;;6.63;100.00;98415.44;5042590;28;20265;-81
2022/11/22 04:53:51;;;;;;;4.93;2.28;;;6.60;99.90;;;6.61;100.00;98411.94;5031352;28;20284;-82
2022/11/22 04:56:22;;;;;;;7.25;3.20;;;6.60;99.90;;;6.81;100.00;98417.03;5013989;28;20240;-83
2022/11/22 04:58:50;;;;;;;5.35;2.35;;;6.80;99.90;;;6.95;100.00;98427.44;5024634;28;20246;-82
2022/11/22 05:01:17;;;;;;;5.97;2.40;;;6.90;99.90;;;6.80;100.00;98411.78;5012946;28;20255;-82
2022/11/22 05:03:44;;;;;;;6.95;2.90;;;6.90;99.90;;;6.69;100.00;98410.13;5024076;28;20285;-83
2022/11/22 05:06:13;;;;;;;5.50;2.30;;;6.70;99.90;;;6.58;100.00;98403.22;5026874;28;20227;-82
2022/11/22 05:08:40;;;;;;;5.35;2.40;;;6.60;99.90;;;6.56;100.00;98403.22;5015345;28;20223;-82
2022/11/22 05:11:07;;;;;;;6.65;2.75;;;6.60;99.90;;;6.57;100.00;98414.59;5023628;28;20227;-81
2022/11/22 05:13:37;;;;;;;5.88;2.65;;;6.60;99.90;;;6.56;100.00;98415.47;5025632;28;20274;-82
2022/11/22 05:16:09;;;;;;;6.85;2.80;;;6.60;99.90;;;6.53;100.00;98418.13;5031038;28;20382;-82
2022/11/22 05:18:39;;;;;;;7.03;2.88;;;6.50;99.90;;;6.54;100.00;98414.63;5012730;28;20315;-82
2022/11/22 05:21:09;;;;;;;8.02;3.28;;;6.60;99.90;;;6.53;100.00;98412.88;5024907;28;20231;-82
2022/11/22 05:23:55;;;;;;;8.40;3.05;;;6.60;99.90;;;6.51;100.00;98419.91;5019685;28;20231;-82
2022/11/22 05:26:32;;;;;;;6.03;2.45;;;6.60;99.90;;;6.46;100.00;98427.78;5018985;28;20309;-83
2022/11/22 05:29:08;;;;;;;6.43;2.58;;;6.50;99.90;;;6.40;100.00;98426.06;5012155;28;20259;-82
2022/11/22 05:31:38;;;;;;;5.57;2.30;;;6.40;99.90;;;6.41;100.00;98440.06;5021375;28;20254;-82
2022/11/22 05:34:05;;;;;;;5.05;2.20;;;6.40;99.90;;;6.38;100.00;98442.69;5018830;28;20242;-82
2022/11/22 05:36:33;;;;;;;4.43;1.95;;;6.40;99.90;;;6.36;100.00;98449.72;5008633;28;20251;-83
2022/11/22 05:39:01;;;;;;;3.92;1.73;;;6.40;99.90;;;6.43;100.00;98452.28;5039633;28;20254;-82
2022/11/22 05:41:29;;;;;;;5.57;2.30;;;6.40;99.90;;;6.52;100.00;98454.03;5039242;28;20222;-82
2022/11/22 05:43:56;;;;;;;6.05;2.30;;;6.60;99.90;;;6.69;100.00;98461.78;5030957;28;20270;-82
2022/11/22 05:46:27;;;;;;;7.63;3.05;;;6.70;99.90;;;6.68;100.00;98458.28;5000807;28;20234;-82
2022/11/22 05:48:56;;;;;;;7.80;3.22;;;6.70;99.90;;;6.66;100.00;98451.31;5021909;28;20282;-81
2022/11/22 05:51:26;;;;;;;1.65;1.30;;;6.70;99.90;;;6.69;100.00;98446.03;5022035;28;20306;-84
2022/11/22 05:54:00;;;;;;;5.78;2.53;;;6.70;99.90;;;6.83;100.00;98443.28;5024408;28;20237;-82
2022/11/22 05:56:27;;;;;;;6.10;2.53;;;6.80;99.90;;;6.73;100.00;98422.34;5024103;28;20236;-83
2022/11/22 05:58:54;;;;;;;6.28;2.65;;;6.80;99.90;;;6.54;100.00;98423.38;5024541;28;20257;-83
2022/11/22 06:01:23;;;;;;;6.05;2.75;;;6.60;99.90;;;6.47;100.00;98428.66;5024154;28;20270;-83
2022/11/22 06:03:54;;;;;;;7.68;3.25;;;6.50;99.90;;;6.37;100.00;98430.47;5025722;28;20294;-83
2022/11/22 06:06:21;;;;;;;5.78;2.50;;;6.50;99.90;;;6.32;100.00;98419.13;5026051;28;20261;-83
2022/11/22 06:08:50;;;;;;;10.10;3.28;;;6.40;99.90;;;6.27;100.00;98420.91;5020958;28;20299;-82
2022/11/22 06:11:24;;;;;;;7.57;2.60;;;6.30;99.90;;;6.26;100.00;98429.66;5030813;28;20229;-82
2022/11/22 06:13:55;;;;;;;6.25;2.53;;;6.30;99.90;;;6.21;100.00;98427.06;5031287;28;20242;-82
2022/11/22 06:16:23;;;;;;;6.80;2.80;;;6.30;99.90;;;6.16;100.00;98427.97;5028348;28;20235;-82
2022/11/22 06:18:52;;;;;;;9.25;3.10;;;6.20;99.90;;;6.06;100.00;98432.38;5021960;28;20254;-81
2022/11/22 06:21:23;;;;;;;5.50;2.20;;;6.10;99.90;;;6.09;100.00;98448.09;5008473;28;20281;-81
2022/11/22 06:23:53;;;;;;;10.15;3.08;;;6.10;99.90;;;6.10;100.00;98460.34;5033890;28;20219;-82
2022/11/22 06:26:22;;;;;;;7.97;2.70;;;6.10;99.90;;;6.08;100.00;98467.34;5030568;28;20678;-82
2022/11/22 06:28:49;;;;;;;9.32;3.10;;;6.10;99.90;;;6.09;100.00;98480.47;4989938;28;20235;-82
2022/11/22 06:31:24;;;;;;;9.02;2.88;;;6.10;99.90;;;6.10;100.00;98489.22;5031742;28;20287;-82
2022/11/22 06:33:59;;;;;;;6.03;2.35;;;6.10;99.90;;;6.13;100.00;98502.31;5011676;28;20268;-82
2022/11/22 06:36:33;;;;;;;7.63;3.05;;;6.10;99.90;;;6.13;100.00;98507.56;5029642;28;20306;-82
2022/11/22 06:39:02;;;;;;;6.38;2.50;;;6.20;99.90;;;6.16;100.00;98510.19;5028515;28;20223;-82
2022/11/22 06:41:35;;;;;;;6.47;2.47;;;6.20;99.90;;;6.30;100.00;98507.50;5034230;28;20231;-83
2022/11/22 06:44:08;;;;;;;6.80;2.58;;;6.30;99.90;;;6.25;100.00;98512.78;5005595;28;20227;-82
2022/11/22 06:46:36;;;;;;;6.82;2.50;;;6.30;99.90;;;6.14;100.00;98516.31;5031748;28;20226;-82
2022/11/22 06:49:03;;;;;;;5.47;2.22;;;6.20;99.90;;;6.10;100.00;98518.94;5025341;28;20790;-82
2022/11/22 06:51:31;;;;;;;6.75;2.63;;;6.10;99.90;;;6.04;100.00;98525.97;5049810;28;20230;-82
2022/11/22 06:53:58;;;;;;;5.95;2.40;;;6.10;99.90;;;6.00;100.00;98529.50;5003925;28;20261;-82
2022/11/22 06:56:28;;;;;;;5.75;2.25;;;6.00;99.90;;;5.95;100.00;98526.00;5011974;28;20231;-82
2022/11/22 06:58:56;;;;;;;6.97;2.72;;;6.00;99.90;;;6.00;100.00;98546.09;5018320;28;20289;-82
2022/11/22 07:01:28;;;;;;;6.03;2.30;;;6.00;99.90;;;5.99;100.00;98546.97;5036411;28;20227;-82
2022/11/22 07:03:57;;;;;;;6.45;2.50;;;6.00;99.90;;;5.96;100.00;98549.63;5009080;28;20236;-82
2022/11/22 07:06:37;;;;;;;6.32;2.50;;;6.00;99.90;;;5.86;100.00;98533.88;5008023;28;20707;-82
2022/11/22 07:09:10;;;;;;;8.10;2.97;;;5.90;99.90;;;5.83;100.00;98534.75;5025069;28;20238;-82
2022/11/22 07:11:38;;;;;;;6.63;2.60;;;5.90;99.90;;;5.79;100.00;98530.38;5029962;28;20274;-82
2022/11/22 07:14:05;;;;;;;6.78;2.65;;;5.90;99.90;;;5.74;100.00;98534.78;5017008;28;20262;-82
2022/11/22 07:16:37;;;;;;;5.78;2.22;;;5.80;99.90;;;5.81;100.00;98544.38;5014604;28;20243;-83
2022/11/22 07:19:05;;;;;;;6.70;2.50;;;5.80;99.90;;;5.85;100.00;98546.09;5027127;28;20230;-83
2022/11/22 07:21:34;;;;;;;6.38;2.53;;;5.90;99.90;;;5.85;100.00;98545.22;5020689;28;20318;-83
2022/11/22 07:24:03;;;;;;;6.30;2.55;;;5.90;99.90;;;5.86;100.00;98547.84;5028730;28;20265;-82
2022/11/22 07:26:30;;;;;;;6.32;2.50;;;5.90;99.90;;;5.84;100.00;98561.84;5012745;28;20739;-83
2022/11/22 07:28:57;;;;;;;6.78;2.53;;;5.90;99.90;;;5.80;100.00;98560.97;5029019;28;20258;-83
2022/11/22 07:31:25;;;;;;;6.75;2.60;;;5.90;99.90;;;5.84;100.00;98562.72;5034152;28;20318;-83
2022/11/22 07:33:52;;;;;;;7.57;2.88;;;5.90;99.90;;;5.83;100.00;98568.84;5017254;28;20258;-82
2022/11/22 07:36:21;;;;;;;7.90;2.95;;;5.90;99.90;;;5.86;100.00;98578.47;5023567;28;20301;-83
2022/11/22 07:38:48;;;;;;;6.35;2.53;;;5.90;99.90;;;5.86;100.00;98570.59;5025142;28;20288;-82
2022/11/22 07:41:17;;;;;;;8.30;2.97;;;5.90;99.90;;;5.86;100.00;98578.47;5010370;28;20238;-82
2022/11/22 07:43:45;;;;;;;7.82;2.88;;;5.90;99.90;;;5.87;100.00;98578.44;5019620;28;20242;-82
2022/11/22 07:46:30;;;;;;;6.47;2.45;;;5.90;99.90;;;5.85;100.00;98574.97;5025423;28;20319;-82
2022/11/22 07:48:59;;;;;;;6.13;2.45;;;5.90;99.90;;;5.83;100.00;98581.09;5020549;28;20255;-82
2022/11/22 07:51:27;;;;;;;6.55;2.50;;;5.90;99.90;;;5.83;100.00;98586.34;5018477;28;20690;-82
2022/11/22 07:53:55;;;;;;;7.18;2.83;;;5.80;99.90;;;5.87;100.00;98598.56;5024543;28;20262;-82
2022/11/22 07:56:22;;;;;;;7.15;2.83;;;5.90;99.90;;;5.84;100.00;98594.19;5020783;28;20236;-80
2022/11/22 07:58:49;;;;;;;7.47;2.90;;;5.90;99.90;;;5.85;100.00;98592.44;4997690;28;20713;-80
2022/11/22 08:01:18;;;;;;;8.65;3.35;;;5.90;99.90;;;5.86;100.00;98602.06;5021612;28;20364;-83
2022/11/22 08:03:46;;;;;;;8.77;3.33;;;5.90;99.90;;;5.93;100.00;98602.09;5041109;28;20253;-82
2022/11/22 08:06:15;;;;;;;6.65;2.53;;;5.90;99.90;;;5.93;100.00;98609.97;5024112;28;20427;-83
2022/11/22 08:08:42;;;;;;;7.32;2.97;;;6.00;99.90;;;5.93;100.00;98606.47;5028936;28;20246;-82
2022/11/22 08:11:10;;;;;;;9.00;3.42;;;5.90;99.90;;;5.95;100.00;98609.94;5023442;28;20273;-83
2022/11/22 08:13:38;;;;;;;6.97;2.67;;;6.00;99.90;;;5.95;100.00;98607.34;5025940;28;20234;-82
2022/11/22 08:16:12;;;;;;;8.38;3.20;;;6.00;99.90;;;5.95;100.00;98621.31;5017195;28;20242;-83
2022/11/22 08:18:41;;;;;;;8.85;3.25;;;6.00;99.90;;;5.98;100.00;98613.44;5026861;28;20242;-83
2022/11/22 08:21:11;;;;;;;8.73;3.40;;;6.00;99.90;;;6.01;100.00;98621.31;5009418;28;20261;-83
2022/11/22 08:23:40;;;;;;;9.57;3.42;;;6.00;99.90;;;6.05;100.00;98630.94;5025359;28;20285;-83
2022/11/22 08:26:11;;;;;;;9.27;3.30;;;6.10;99.90;;;6.05;100.00;98620.44;5026438;28;20314;-83
2022/11/22 08:28:40;;;;;;;8.50;3.15;;;6.10;99.90;;;6.06;100.00;98624.78;5027611;28;20234;-83
2022/11/22 08:31:12;;;;;;;2.17;1.60;;;6.10;99.90;;;6.12;100.00;98641.41;5008997;28;20238;-83
2022/11/22 08:33:40;;;;;;;8.43;2.88;;;6.10;99.90;;;6.14;100.00;98643.16;5027612;28;20224;-83
2022/11/22 08:36:08;;;;;;;18.83;5.43;;;6.20;99.90;;;6.16;100.00;98640.53;5005833;28;20242;-83
2022/11/22 08:38:41;;;;;;;9.82;3.25;;;6.10;99.90;;;6.19;100.00;98641.38;5032621;28;20231;-83
2022/11/22 08:41:08;;;;;;;8.95;3.05;;;6.20;99.90;;;6.17;100.00;98637.03;5040003;28;20263;-83
2022/11/22 08:43:36;;;;;;;8.73;3.05;;;6.20;99.90;;;6.19;100.00;98644.00;5045707;28;20238;-83
2022/11/22 08:46:03;;;;;;;5.40;2.28;;;6.20;99.90;;;6.21;100.00;98646.63;5040463;28;20284;-83
2022/11/22 08:48:33;;;;;;;7.22;2.85;;;6.30;99.90;;;6.20;100.00;98639.63;5033910;28;20237;-83
2022/11/22 08:51:04;;;;;;;6.03;2.35;;;6.20;99.90;;;6.22;100.00;98643.13;5042931;28;20234;-83
2022/11/22 08:53:34;;;;;;;6.20;2.50;;;6.30;99.90;;;6.24;100.00;98634.38;5024934;28;20644;-83
2022/11/22 08:56:03;;;;;;;8.10;3.15;;;6.30;99.90;;;6.29;100.00;98655.38;5026049;28;20231;-83
2022/11/22 08:58:31;;;;;;;7.20;2.88;;;6.30;99.90;;;6.32;100.00;98657.97;5026269;28;20247;-83
2022/11/22 09:01:17;;;;;;;9.05;3.47;;;6.40;99.90;;;6.37;100.00;98661.47;5021909;28;20250;-83
2022/11/22 09:03:44;;;;;;;7.57;2.85;;;6.40;99.90;;;6.41;100.00;98669.34;5028506;28;20255;-83
2022/11/22 09:06:19;;;;;;;7.45;2.80;;;6.40;99.90;;;6.45;100.00;98664.06;5038655;28;20277;-83
2022/11/22 09:09:06;;;;;;;7.50;3.00;;;6.50;99.90;;;6.50;100.00;98662.31;5016562;28;20223;-83
2022/11/22 09:11:53;;;;;;;5.03;2.10;;;6.50;99.90;;;6.54;100.00;98664.94;5026215;28;20253;-83
2022/11/22 09:14:20;;;;;;;7.15;2.92;;;6.60;99.90;;;6.57;100.00;98664.94;5021549;28;20318;-83
2022/11/22 09:16:48;;;;;;;9.55;3.65;;;6.60;99.90;;;6.61;100.00;98664.06;5023204;28;20318;-83
2022/11/22 09:19:15;;;;;;;8.20;3.20;;;6.60;99.90;;;6.65;100.00;98667.53;5020616;28;20282;-83
2022/11/22 09:21:42;;;;;;;6.03;2.80;;;6.60;99.90;;;6.65;100.00;98663.16;5006586;28;20239;-83
2022/11/22 09:24:09;;;;;;;7.88;3.15;;;6.70;99.90;;;6.71;100.00;98668.41;5025064;28;20255;-83
2022/11/22 09:26:36;;;;;;;7.53;2.92;;;6.60;99.90;;;6.70;100.00;98660.53;5021634;28;20259;-83
2022/11/22 09:29:04;;;;;;;6.90;2.88;;;6.70;99.90;;;6.74;100.00;98657.00;5022578;28;20222;-83
2022/11/22 09:31:31;;;;;;;6.45;2.58;;;6.80;99.90;;;6.74;100.00;98667.50;4997846;28;20228;-83
2022/11/22 09:33:58;;;;;;;7.25;2.92;;;6.80;99.90;;;6.77;100.00;98654.38;5023927;28;20297;-84
2022/11/22 09:36:25;;;;;;;6.75;2.75;;;6.80;99.90;;;6.82;100.00;98651.72;5029397;28;20262;-83
2022/11/22 09:38:54;;;;;;;5.65;2.40;;;6.80;99.90;;;6.84;100.00;98653.44;5006810;28;20334;-83
2022/11/22 09:42:00;;;;;;;5.88;2.40;;;6.90;99.90;;;6.83;100.00;98648.22;5042366;28;20794;-83
2022/11/22 09:44:30;;;;;;;7.45;3.05;;;6.90;99.90;;;6.83;100.00;98641.19;5024742;28;20293;-83
2022/11/22 09:47:19;;;;;;;5.53;2.33;;;6.80;99.90;;;6.83;100.00;98632.44;5006382;28;20263;-83
2022/11/22 09:50:05;;;;;;;7.55;2.67;;;6.80;99.90;;;6.83;100.00;98628.06;4993267;28;20223;-83
2022/11/22 09:52:47;;;;;;;12.00;4.60;;;6.90;99.90;;;6.87;100.00;98628.91;5010056;28;20723;-84
2022/11/22 09:55:22;;;;;;;6.07;2.55;;;6.90;99.90;;;6.88;100.00;98628.03;5023820;28;20223;-83
2022/11/22 09:58:10;;;;;;;9.50;3.58;;;6.90;99.90;;;6.92;100.00;98628.00;5029090;28;20227;-83
2022/11/22 10:00:37;;;;;;;7.70;3.30;;;6.90;99.90;;;6.94;100.00;98625.38;5022321;28;20250;-83
2022/11/22 10:03:12;;;;;;;8.95;3.58;;;6.90;99.90;;;6.99;100.00;98624.47;5001684;28;20238;-84
2022/11/22 10:05:52;;;;;;;9.98;4.00;;;7.00;99.90;;;7.04;100.00;98624.44;5022537;28;20231;-84
2022/11/22 10:08:47;;;;;;;7.93;3.08;;;7.00;99.90;;;7.08;100.00;98610.41;5027140;28;20276;-84
2022/11/22 10:11:44;;;;;;;11.52;4.53;;;7.10;99.90;;;7.11;100.00;98602.50;5017912;28;20244;-83
2022/11/22 10:14:29;;;;;;;8.32;3.30;;;7.10;99.90;;;7.17;100.00;98602.47;4990788;28;20290;-83
2022/11/22 10:17:07;;;;;;;8.77;3.65;;;7.20;99.90;;;7.21;100.00;98609.44;5020560;28;20240;-83
2022/11/22 10:19:44;;;;;;;11.05;4.40;;;7.20;99.90;;;7.23;100.00;98606.81;5014917;28;20261;-82
2022/11/22 10:22:15;;;;;;;26.15;8.80;;;7.20;99.90;;;7.24;100.00;98595.41;4991962;28;20238;-82
2022/11/22 10:24:43;;;;;;;12.98;4.47;;;7.20;99.90;;;7.29;100.00;98602.38;4979673;28;20239;-82
2022/11/22 10:27:13;;;;;;;10.05;3.45;;;7.20;99.90;;;7.33;100.00;98606.72;4969906;28;20251;-82
2022/11/22 10:30:12;;;;;;;11.85;4.20;;;7.30;99.90;;;7.35;100.00;98596.19;5000592;28;20235;-83
2022/11/22 10:33:19;;;;;;;11.50;4.18;;;7.30;99.90;;;7.37;100.00;98600.56;4988118;28;20369;-83
2022/11/22 10:36:06;;;;;;;22.85;6.75;;;7.30;99.90;;;7.44;100.00;98604.00;4978811;28;20238;-82
2022/11/22 10:39:03;;;;;;;8.25;3.28;;;7.40;99.90;;;7.45;100.00;98597.88;5019274;28;20219;-82
2022/11/22 10:41:50;;;;;;;6.50;2.78;;;7.30;99.90;;;7.45;100.00;98587.34;5022887;28;20250;-83
2022/11/22 10:44:41;;;;;;;10.02;3.42;;;7.40;99.90;;;7.44;100.00;98590.88;4979065;28;20233;-82
2022/11/22 10:47:12;;;;;;;10.85;3.95;;;7.40;99.90;;;7.50;100.00;98585.56;5005955;28;20238;-83
2022/11/22 10:50:33;;;;;;;14.10;5.13;;;7.40;99.90;;;7.51;100.00;98574.16;5020282;28;20232;-83
2022/11/22 10:53:03;;;;;;;8.07;3.45;;;7.50;99.90;;;7.55;100.00;98575.00;4964493;28;20237;-82
2022/11/22 10:55:58;;;;;;;7.75;3.33;;;7.50;99.90;;;7.63;100.00;98587.19;4953714;28;20236;-83